Woodleaf, California
Current Conditions -  °F | °C
As of 2:20 PM on Tuesday 21 Oct 2014 (Local Time) from KGOO Reporting Station
Clear Clear  
Wind Chill: 59°   Ceiling: Unl
Heat Index: 59°   Visibility: 10mi
Dew Point: 37°   Wind: 8mph
Humidity: 45%   Direction: 290°WNW
Pressure: 30.07"   Gusts: NA
Location:  39.4476°N, 121.176°W
Report Text: KGOO 212120Z AUTO 29007KT 10SM CLR 15/03 A3007 RMK AO1
Loading
Personal Weather Stations






























Interactive Weather Map
Tropical Storm Tracking
New forecast layout! Learn more

10-Day Weather Forecast

Advertisements
Track Severe Weather on mobile